sensor_id;sensor_type;location;lat;lon;timestamp;P1;durP1;ratioP1;P2;durP2;ratioP2
68872;SDS011;55907;50.806;12.882;2023-05-02T00:03:01;9.9;;;7.0;;
68872;SDS011;55907;50.806;12.882;2023-05-02T00:06:02;9.1;;;6.9;;
68872;SDS011;55907;50.806;12.882;2023-05-02T00:09:04;10.1;;;7.1;;
68872;SDS011;55907;50.806;12.882;2023-05-02T00:12:05;9.4;;;7.2;;
68872;SDS011;55907;50.806;12.882;2023-05-02T00:15:07;10.1;;;7.0;;
68872;SDS011;55907;50.806;12.882;2023-05-02T00:18:08;10.4;;;7.3;;
68872;SDS011;55907;50.806;12.882;2023-05-02T00:21:10;10.2;;;7.0;;
68872;SDS011;55907;50.806;12.882;2023-05-02T00:24:11;9.7;;;7.0;;
68872;SDS011;55907;50.806;12.882;2023-05-02T00:30:14;10.2;;;6.9;;
68872;SDS011;55907;50.806;12.882;2023-05-02T00:33:16;9.1;;;7.0;;
68872;SDS011;55907;50.806;12.882;2023-05-02T00:36:18;10.4;;;6.8;;
68872;SDS011;55907;50.806;12.882;2023-05-02T00:39:19;9.2;;;7.2;;
68872;SDS011;55907;50.806;12.882;2023-05-02T00:42:20;8.9;;;7.1;;
68872;SDS011;55907;50.806;12.882;2023-05-02T00:45:22;10.2;;;6.9;;
68872;SDS011;55907;50.806;12.882;2023-05-02T00:48:24;9.1;;;7.3;;
68872;SDS011;55907;50.806;12.882;2023-05-02T00:51:25;10.3;;;7.4;;
68872;SDS011;55907;50.806;12.882;2023-05-02T00:54:26;11.7;;;7.4;;
68872;SDS011;55907;50.806;12.882;2023-05-02T00:57:28;9.6;;;7.1;;
68872;SDS011;55907;50.806;12.882;2023-05-02T01:00:31;10.3;;;7.3;;
68872;SDS011;55907;50.806;12.882;2023-05-02T01:03:35;12.4;;;7.9;;
68872;SDS011;55907;50.806;12.882;2023-05-02T01:06:35;11.5;;;7.8;;
68872;SDS011;55907;50.806;12.882;2023-05-02T01:12:38;12.2;;;7.8;;
68872;SDS011;55907;50.806;12.882;2023-05-02T01:15:38;10.4;;;7.8;;
68872;SDS011;55907;50.806;12.882;2023-05-02T01:18:40;17.7;;;11.4;;
68872;SDS011;55907;50.806;12.882;2023-05-02T01:21:40;12.0;;;8.8;;
68872;SDS011;55907;50.806;12.882;2023-05-02T01:24:48;11.2;;;7.9;;
68872;SDS011;55907;50.806;12.882;2023-05-02T01:27:46;11.3;;;7.8;;
68872;SDS011;55907;50.806;12.882;2023-05-02T01:30:45;11.9;;;7.6;;
68872;SDS011;55907;50.806;12.882;2023-05-02T01:33:46;10.2;;;7.7;;
68872;SDS011;55907;50.806;12.882;2023-05-02T01:36:49;8.7;;;7.5;;
68872;SDS011;55907;50.806;12.882;2023-05-02T01:39:49;11.8;;;7.9;;
68872;SDS011;55907;50.806;12.882;2023-05-02T01:42:51;11.2;;;8.1;;
68872;SDS011;55907;50.806;12.882;2023-05-02T01:45:52;12.3;;;8.1;;
68872;SDS011;55907;50.806;12.882;2023-05-02T01:51:55;10.6;;;8.1;;
68872;SDS011;55907;50.806;12.882;2023-05-02T01:54:57;10.9;;;7.8;;
68872;SDS011;55907;50.806;12.882;2023-05-02T02:01:00;12.4;;;8.3;;
68872;SDS011;55907;50.806;12.882;2023-05-02T02:04:02;13.5;;;8.4;;
68872;SDS011;55907;50.806;12.882;2023-05-02T02:07:05;10.7;;;7.6;;
68872;SDS011;55907;50.806;12.882;2023-05-02T02:10:05;11.4;;;8.5;;
68872;SDS011;55907;50.806;12.882;2023-05-02T02:13:10;12.6;;;8.1;;
68872;SDS011;55907;50.806;12.882;2023-05-02T02:16:08;10.8;;;8.0;;
68872;SDS011;55907;50.806;12.882;2023-05-02T02:19:09;12.8;;;8.4;;
68872;SDS011;55907;50.806;12.882;2023-05-02T02:22:11;10.4;;;7.7;;
68872;SDS011;55907;50.806;12.882;2023-05-02T02:25:13;14.1;;;7.9;;
68872;SDS011;55907;50.806;12.882;2023-05-02T02:28:14;10.6;;;7.8;;
68872;SDS011;55907;50.806;12.882;2023-05-02T02:31:15;9.9;;;7.7;;
68872;SDS011;55907;50.806;12.882;2023-05-02T02:34:17;9.0;;;7.3;;
68872;SDS011;55907;50.806;12.882;2023-05-02T02:37:19;12.9;;;7.6;;
68872;SDS011;55907;50.806;12.882;2023-05-02T02:40:21;10.5;;;7.7;;
68872;SDS011;55907;50.806;12.882;2023-05-02T02:43:23;13.3;;;7.9;;
68872;SDS011;55907;50.806;12.882;2023-05-02T02:46:26;10.1;;;7.5;;
68872;SDS011;55907;50.806;12.882;2023-05-02T02:49:26;9.8;;;7.5;;
68872;SDS011;55907;50.806;12.882;2023-05-02T02:52:27;11.1;;;7.2;;
68872;SDS011;55907;50.806;12.882;2023-05-02T02:55:30;11.0;;;7.0;;
68872;SDS011;55907;50.806;12.882;2023-05-02T02:58:30;10.4;;;7.3;;
68872;SDS011;55907;50.806;12.882;2023-05-02T03:01:31;9.6;;;7.4;;
68872;SDS011;55907;50.806;12.882;2023-05-02T03:04:33;11.5;;;8.1;;
68872;SDS011;55907;50.806;12.882;2023-05-02T03:07:34;11.3;;;7.2;;
68872;SDS011;55907;50.806;12.882;2023-05-02T03:10:35;11.6;;;7.7;;
68872;SDS011;55907;50.806;12.882;2023-05-02T03:13:37;9.5;;;7.3;;
68872;SDS011;55907;50.806;12.882;2023-05-02T03:16:39;11.6;;;7.2;;
68872;SDS011;55907;50.806;12.882;2023-05-02T03:19:40;11.8;;;8.6;;
68872;SDS011;55907;50.806;12.882;2023-05-02T03:22:42;10.2;;;7.2;;
68872;SDS011;55907;50.806;12.882;2023-05-02T03:25:43;8.9;;;6.7;;
68872;SDS011;55907;50.806;12.882;2023-05-02T03:28:45;11.4;;;7.1;;
68872;SDS011;55907;50.806;12.882;2023-05-02T03:31:46;9.7;;;7.4;;
68872;SDS011;55907;50.806;12.882;2023-05-02T03:34:48;10.8;;;6.6;;
68872;SDS011;55907;50.806;12.882;2023-05-02T03:37:49;9.8;;;6.7;;
68872;SDS011;55907;50.806;12.882;2023-05-02T03:40:51;9.0;;;6.5;;
68872;SDS011;55907;50.806;12.882;2023-05-02T03:43:52;8.3;;;6.4;;
68872;SDS011;55907;50.806;12.882;2023-05-02T03:46:54;9.0;;;6.5;;
68872;SDS011;55907;50.806;12.882;2023-05-02T03:49:55;7.6;;;6.0;;
68872;SDS011;55907;50.806;12.882;2023-05-02T03:52:57;8.3;;;6.1;;
68872;SDS011;55907;50.806;12.882;2023-05-02T03:55:59;10.0;;;6.3;;
68872;SDS011;55907;50.806;12.882;2023-05-02T03:59:00;11.4;;;6.5;;
68872;SDS011;55907;50.806;12.882;2023-05-02T04:02:02;9.6;;;6.8;;
68872;SDS011;55907;50.806;12.882;2023-05-02T04:05:03;8.9;;;6.7;;
68872;SDS011;55907;50.806;12.882;2023-05-02T04:11:06;8.8;;;5.8;;
68872;SDS011;55907;50.806;12.882;2023-05-02T04:14:08;8.0;;;6.3;;
68872;SDS011;55907;50.806;12.882;2023-05-02T04:17:09;7.4;;;5.9;;
68872;SDS011;55907;50.806;12.882;2023-05-02T04:20:11;8.1;;;6.0;;
68872;SDS011;55907;50.806;12.882;2023-05-02T04:23:13;9.6;;;6.4;;
68872;SDS011;55907;50.806;12.882;2023-05-02T04:26:14;8.0;;;6.4;;
68872;SDS011;55907;50.806;12.882;2023-05-02T04:29:16;15.8;;;6.5;;
68872;SDS011;55907;50.806;12.882;2023-05-02T04:32:17;9.8;;;6.1;;
68872;SDS011;55907;50.806;12.882;2023-05-02T04:35:19;8.9;;;6.5;;
68872;SDS011;55907;50.806;12.882;2023-05-02T04:38:20;10.0;;;6.4;;
68872;SDS011;55907;50.806;12.882;2023-05-02T04:41:22;11.5;;;7.1;;
68872;SDS011;55907;50.806;12.882;2023-05-02T04:44:23;11.0;;;7.0;;
68872;SDS011;55907;50.806;12.882;2023-05-02T04:47:25;8.8;;;6.3;;
68872;SDS011;55907;50.806;12.882;2023-05-02T04:50:26;10.7;;;6.2;;
68872;SDS011;55907;50.806;12.882;2023-05-02T04:53:28;8.1;;;5.7;;
68872;SDS011;55907;50.806;12.882;2023-05-02T04:56:29;10.9;;;6.9;;
68872;SDS011;55907;50.806;12.882;2023-05-02T04:59:31;8.6;;;6.5;;
68872;SDS011;55907;50.806;12.882;2023-05-02T05:02:32;8.3;;;6.6;;
68872;SDS011;55907;50.806;12.882;2023-05-02T05:05:34;8.5;;;5.5;;
68872;SDS011;55907;50.806;12.882;2023-05-02T05:08:36;8.1;;;5.5;;
68872;SDS011;55907;50.806;12.882;2023-05-02T05:11:37;8.0;;;6.1;;
68872;SDS011;55907;50.806;12.882;2023-05-02T05:14:39;9.0;;;6.1;;
68872;SDS011;55907;50.806;12.882;2023-05-02T05:17:40;7.2;;;5.8;;
68872;SDS011;55907;50.806;12.882;2023-05-02T05:20:42;8.5;;;6.0;;
68872;SDS011;55907;50.806;12.882;2023-05-02T05:23:43;7.3;;;5.5;;
68872;SDS011;55907;50.806;12.882;2023-05-02T05:26:45;8.3;;;6.3;;
68872;SDS011;55907;50.806;12.882;2023-05-02T05:29:46;8.0;;;5.7;;
68872;SDS011;55907;50.806;12.882;2023-05-02T05:32:48;8.8;;;5.5;;
68872;SDS011;55907;50.806;12.882;2023-05-02T05:35:49;7.6;;;5.4;;
68872;SDS011;55907;50.806;12.882;2023-05-02T05:41:52;8.0;;;5.2;;
68872;SDS011;55907;50.806;12.882;2023-05-02T05:44:54;7.6;;;5.4;;
68872;SDS011;55907;50.806;12.882;2023-05-02T05:47:55;8.0;;;4.9;;
68872;SDS011;55907;50.806;12.882;2023-05-02T05:50:57;8.1;;;5.1;;
68872;SDS011;55907;50.806;12.882;2023-05-02T05:53:58;6.1;;;4.8;;
68872;SDS011;55907;50.806;12.882;2023-05-02T05:57:00;6.7;;;4.9;;
68872;SDS011;55907;50.806;12.882;2023-05-02T06:00:01;6.6;;;5.3;;
68872;SDS011;55907;50.806;12.882;2023-05-02T06:03:03;8.0;;;5.0;;
68872;SDS011;55907;50.806;12.882;2023-05-02T06:06:04;7.2;;;5.2;;
68872;SDS011;55907;50.806;12.882;2023-05-02T06:09:06;8.9;;;5.5;;
68872;SDS011;55907;50.806;12.882;2023-05-02T06:12:07;7.5;;;5.4;;
68872;SDS011;55907;50.806;12.882;2023-05-02T06:15:09;7.0;;;4.8;;
68872;SDS011;55907;50.806;12.882;2023-05-02T06:18:10;7.8;;;4.7;;
68872;SDS011;55907;50.806;12.882;2023-05-02T06:21:12;7.9;;;5.5;;
68872;SDS011;55907;50.806;12.882;2023-05-02T06:24:13;8.1;;;5.5;;
68872;SDS011;55907;50.806;12.882;2023-05-02T06:27:15;8.3;;;5.1;;
68872;SDS011;55907;50.806;12.882;2023-05-02T06:30:16;7.4;;;5.2;;
68872;SDS011;55907;50.806;12.882;2023-05-02T06:33:18;6.3;;;4.7;;
68872;SDS011;55907;50.806;12.882;2023-05-02T06:36:19;8.1;;;5.2;;
68872;SDS011;55907;50.806;12.882;2023-05-02T06:39:21;8.2;;;4.9;;
68872;SDS011;55907;50.806;12.882;2023-05-02T06:42:22;7.1;;;4.9;;
68872;SDS011;55907;50.806;12.882;2023-05-02T06:45:24;7.2;;;4.9;;
68872;SDS011;55907;50.806;12.882;2023-05-02T06:48:25;7.1;;;4.9;;
68872;SDS011;55907;50.806;12.882;2023-05-02T06:51:27;7.2;;;4.7;;
68872;SDS011;55907;50.806;12.882;2023-05-02T06:54:28;7.8;;;4.7;;
68872;SDS011;55907;50.806;12.882;2023-05-02T06:57:30;10.2;;;5.4;;
68872;SDS011;55907;50.806;12.882;2023-05-02T07:00:31;6.7;;;4.8;;
68872;SDS011;55907;50.806;12.882;2023-05-02T07:03:33;8.1;;;5.5;;
68872;SDS011;55907;50.806;12.882;2023-05-02T07:06:34;7.5;;;4.6;;
68872;SDS011;55907;50.806;12.882;2023-05-02T07:09:36;7.0;;;4.7;;
68872;SDS011;55907;50.806;12.882;2023-05-02T07:12:37;6.4;;;4.5;;
68872;SDS011;55907;50.806;12.882;2023-05-02T07:15:39;17.4;;;10.8;;
68872;SDS011;55907;50.806;12.882;2023-05-02T07:18:41;8.3;;;5.2;;
68872;SDS011;55907;50.806;12.882;2023-05-02T07:24:43;9.3;;;4.9;;
68872;SDS011;55907;50.806;12.882;2023-05-02T07:27:45;6.8;;;4.7;;
68872;SDS011;55907;50.806;12.882;2023-05-02T07:30:46;8.0;;;4.7;;
68872;SDS011;55907;50.806;12.882;2023-05-02T07:33:48;9.5;;;5.5;;
68872;SDS011;55907;50.806;12.882;2023-05-02T07:36:49;8.9;;;5.1;;
68872;SDS011;55907;50.806;12.882;2023-05-02T07:39:51;8.1;;;4.7;;
68872;SDS011;55907;50.806;12.882;2023-05-02T07:42:52;7.7;;;5.2;;
68872;SDS011;55907;50.806;12.882;2023-05-02T07:45:54;9.5;;;6.6;;
68872;SDS011;55907;50.806;12.882;2023-05-02T07:48:55;9.0;;;5.3;;
68872;SDS011;55907;50.806;12.882;2023-05-02T07:51:57;9.3;;;5.8;;
68872;SDS011;55907;50.806;12.882;2023-05-02T07:54:58;7.7;;;5.3;;
68872;SDS011;55907;50.806;12.882;2023-05-02T07:58:00;8.2;;;5.5;;
68872;SDS011;55907;50.806;12.882;2023-05-02T08:01:01;7.7;;;4.9;;
68872;SDS011;55907;50.806;12.882;2023-05-02T08:04:03;8.9;;;5.5;;
68872;SDS011;55907;50.806;12.882;2023-05-02T08:07:04;7.5;;;5.0;;
68872;SDS011;55907;50.806;12.882;2023-05-02T08:10:06;6.9;;;5.0;;
68872;SDS011;55907;50.806;12.882;2023-05-02T08:13:07;7.6;;;5.1;;
68872;SDS011;55907;50.806;12.882;2023-05-02T08:16:09;7.3;;;5.4;;
68872;SDS011;55907;50.806;12.882;2023-05-02T08:19:10;7.6;;;5.0;;
68872;SDS011;55907;50.806;12.882;2023-05-02T08:22:12;9.7;;;5.7;;
68872;SDS011;55907;50.806;12.882;2023-05-02T08:25:13;8.7;;;5.8;;
68872;SDS011;55907;50.806;12.882;2023-05-02T08:28:15;6.9;;;4.9;;
68872;SDS011;55907;50.806;12.882;2023-05-02T08:31:16;6.6;;;4.9;;
68872;SDS011;55907;50.806;12.882;2023-05-02T08:34:18;8.5;;;5.0;;
68872;SDS011;55907;50.806;12.882;2023-05-02T08:37:19;8.0;;;5.4;;
68872;SDS011;55907;50.806;12.882;2023-05-02T08:40:21;10.1;;;5.5;;
68872;SDS011;55907;50.806;12.882;2023-05-02T08:43:22;11.5;;;7.0;;
68872;SDS011;55907;50.806;12.882;2023-05-02T08:46:24;11.1;;;7.7;;
68872;SDS011;55907;50.806;12.882;2023-05-02T08:49:26;10.9;;;6.1;;
68872;SDS011;55907;50.806;12.882;2023-05-02T08:52:27;11.1;;;6.9;;
68872;SDS011;55907;50.806;12.882;2023-05-02T08:55:28;8.2;;;5.6;;
68872;SDS011;55907;50.806;12.882;2023-05-02T08:58:30;8.3;;;5.5;;
68872;SDS011;55907;50.806;12.882;2023-05-02T09:01:31;11.0;;;5.4;;
68872;SDS011;55907;50.806;12.882;2023-05-02T09:04:33;8.0;;;5.4;;
68872;SDS011;55907;50.806;12.882;2023-05-02T09:07:42;10.6;;;6.5;;
68872;SDS011;55907;50.806;12.882;2023-05-02T09:10:36;11.4;;;7.3;;
68872;SDS011;55907;50.806;12.882;2023-05-02T09:13:38;13.3;;;7.7;;
68872;SDS011;55907;50.806;12.882;2023-05-02T09:16:39;8.2;;;5.7;;
68872;SDS011;55907;50.806;12.882;2023-05-02T09:19:40;13.1;;;7.3;;
68872;SDS011;55907;50.806;12.882;2023-05-02T09:22:46;9.8;;;6.4;;
68872;SDS011;55907;50.806;12.882;2023-05-02T09:25:43;10.1;;;5.7;;
68872;SDS011;55907;50.806;12.882;2023-05-02T09:28:46;11.1;;;5.7;;
68872;SDS011;55907;50.806;12.882;2023-05-02T09:31:46;7.7;;;5.5;;
68872;SDS011;55907;50.806;12.882;2023-05-02T09:40:52;10.4;;;7.1;;
68872;SDS011;55907;50.806;12.882;2023-05-02T09:43:54;9.1;;;6.4;;
68872;SDS011;55907;50.806;12.882;2023-05-02T09:46:54;13.2;;;8.6;;
68872;SDS011;55907;50.806;12.882;2023-05-02T09:49:55;10.7;;;7.5;;
68872;SDS011;55907;50.806;12.882;2023-05-02T09:53:00;9.3;;;6.8;;
68872;SDS011;55907;50.806;12.882;2023-05-02T09:55:59;8.0;;;6.4;;
68872;SDS011;55907;50.806;12.882;2023-05-02T10:02:02;10.3;;;6.6;;
68872;SDS011;55907;50.806;12.882;2023-05-02T10:05:03;10.7;;;7.5;;
68872;SDS011;55907;50.806;12.882;2023-05-02T10:08:05;11.7;;;8.4;;
68872;SDS011;55907;50.806;12.882;2023-05-02T10:11:06;8.5;;;6.6;;
68872;SDS011;55907;50.806;12.882;2023-05-02T10:14:08;10.8;;;7.4;;
68872;SDS011;55907;50.806;12.882;2023-05-02T10:17:10;10.3;;;7.2;;
68872;SDS011;55907;50.806;12.882;2023-05-02T10:20:11;11.6;;;8.1;;
68872;SDS011;55907;50.806;12.882;2023-05-02T10:23:12;9.5;;;7.7;;
68872;SDS011;55907;50.806;12.882;2023-05-02T10:26:14;10.8;;;7.7;;
68872;SDS011;55907;50.806;12.882;2023-05-02T10:29:15;10.7;;;8.7;;
68872;SDS011;55907;50.806;12.882;2023-05-02T10:32:17;10.2;;;8.3;;
68872;SDS011;55907;50.806;12.882;2023-05-02T10:35:18;11.6;;;8.1;;
68872;SDS011;55907;50.806;12.882;2023-05-02T10:38:20;9.3;;;7.4;;
68872;SDS011;55907;50.806;12.882;2023-05-02T10:41:21;9.5;;;8.0;;
68872;SDS011;55907;50.806;12.882;2023-05-02T10:44:31;10.8;;;8.0;;
68872;SDS011;55907;50.806;12.882;2023-05-02T10:47:24;9.2;;;7.6;;
68872;SDS011;55907;50.806;12.882;2023-05-02T10:50:30;11.1;;;8.5;;
68872;SDS011;55907;50.806;12.882;2023-05-02T10:53:28;11.9;;;8.9;;
68872;SDS011;55907;50.806;12.882;2023-05-02T10:56:28;13.7;;;11.0;;
68872;SDS011;55907;50.806;12.882;2023-05-02T10:59:30;10.5;;;8.9;;
68872;SDS011;55907;50.806;12.882;2023-05-02T11:05:32;12.4;;;9.4;;
68872;SDS011;55907;50.806;12.882;2023-05-02T11:08:34;9.7;;;8.7;;
68872;SDS011;55907;50.806;12.882;2023-05-02T11:11:37;10.4;;;9.3;;
68872;SDS011;55907;50.806;12.882;2023-05-02T11:14:44;9.6;;;8.6;;
68872;SDS011;55907;50.806;12.882;2023-05-02T11:20:40;10.4;;;8.4;;
68872;SDS011;55907;50.806;12.882;2023-05-02T11:23:41;10.3;;;9.2;;
68872;SDS011;55907;50.806;12.882;2023-05-02T11:26:42;10.2;;;9.1;;
68872;SDS011;55907;50.806;12.882;2023-05-02T11:29:51;12.7;;;10.0;;
68872;SDS011;55907;50.806;12.882;2023-05-02T11:35:47;8.6;;;7.6;;
68872;SDS011;55907;50.806;12.882;2023-05-02T11:38:48;8.8;;;7.8;;
68872;SDS011;55907;50.806;12.882;2023-05-02T11:41:50;10.3;;;8.4;;
68872;SDS011;55907;50.806;12.882;2023-05-02T11:44:54;9.2;;;8.2;;
68872;SDS011;55907;50.806;12.882;2023-05-02T11:47:52;10.4;;;8.2;;
68872;SDS011;55907;50.806;12.882;2023-05-02T11:50:55;9.8;;;8.2;;
68872;SDS011;55907;50.806;12.882;2023-05-02T11:53:55;9.2;;;8.0;;
68872;SDS011;55907;50.806;12.882;2023-05-02T11:56:59;8.7;;;7.8;;
68872;SDS011;55907;50.806;12.882;2023-05-02T11:59:58;9.9;;;8.6;;
68872;SDS011;55907;50.806;12.882;2023-05-02T12:03:00;9.4;;;8.4;;
68872;SDS011;55907;50.806;12.882;2023-05-02T12:06:09;9.6;;;8.6;;
68872;SDS011;55907;50.806;12.882;2023-05-02T12:09:06;10.4;;;8.3;;
68872;SDS011;55907;50.806;12.882;2023-05-02T12:12:04;9.9;;;7.0;;
68872;SDS011;55907;50.806;12.882;2023-05-02T12:15:06;9.7;;;7.8;;
68872;SDS011;55907;50.806;12.882;2023-05-02T12:18:07;7.9;;;7.1;;
68872;SDS011;55907;50.806;12.882;2023-05-02T12:21:08;10.2;;;7.8;;
68872;SDS011;55907;50.806;12.882;2023-05-02T12:24:09;9.4;;;7.5;;
68872;SDS011;55907;50.806;12.882;2023-05-02T12:27:11;8.8;;;7.6;;
68872;SDS011;55907;50.806;12.882;2023-05-02T12:33:14;11.3;;;8.2;;
68872;SDS011;55907;50.806;12.882;2023-05-02T12:36:15;10.2;;;8.3;;
68872;SDS011;55907;50.806;12.882;2023-05-02T12:39:17;10.5;;;8.7;;
68872;SDS011;55907;50.806;12.882;2023-05-02T12:42:19;9.7;;;8.7;;
68872;SDS011;55907;50.806;12.882;2023-05-02T12:45:19;10.3;;;8.9;;
68872;SDS011;55907;50.806;12.882;2023-05-02T12:48:22;8.8;;;7.9;;
68872;SDS011;55907;50.806;12.882;2023-05-02T12:51:22;9.7;;;8.0;;
68872;SDS011;55907;50.806;12.882;2023-05-02T12:54:24;8.1;;;7.1;;
68872;SDS011;55907;50.806;12.882;2023-05-02T12:57:25;9.3;;;6.9;;
68872;SDS011;55907;50.806;12.882;2023-05-02T13:00:27;8.6;;;6.7;;
68872;SDS011;55907;50.806;12.882;2023-05-02T13:03:28;6.7;;;6.0;;
68872;SDS011;55907;50.806;12.882;2023-05-02T13:06:29;7.4;;;6.6;;
68872;SDS011;55907;50.806;12.882;2023-05-02T13:09:31;7.6;;;6.8;;
68872;SDS011;55907;50.806;12.882;2023-05-02T13:12:32;6.6;;;5.9;;
68872;SDS011;55907;50.806;12.882;2023-05-02T13:15:34;7.6;;;5.7;;
68872;SDS011;55907;50.806;12.882;2023-05-02T13:18:35;10.7;;;6.2;;
68872;SDS011;55907;50.806;12.882;2023-05-02T13:21:37;11.3;;;7.0;;
68872;SDS011;55907;50.806;12.882;2023-05-02T13:24:38;10.5;;;6.7;;
68872;SDS011;55907;50.806;12.882;2023-05-02T13:30:41;7.1;;;6.3;;
68872;SDS011;55907;50.806;12.882;2023-05-02T13:33:42;6.7;;;6.0;;
68872;SDS011;55907;50.806;12.882;2023-05-02T13:36:44;9.9;;;7.5;;
68872;SDS011;55907;50.806;12.882;2023-05-02T13:39:45;7.8;;;6.8;;
68872;SDS011;55907;50.806;12.882;2023-05-02T13:42:47;9.4;;;7.3;;
68872;SDS011;55907;50.806;12.882;2023-05-02T13:45:48;10.6;;;7.6;;
68872;SDS011;55907;50.806;12.882;2023-05-02T13:48:49;9.4;;;7.8;;
68872;SDS011;55907;50.806;12.882;2023-05-02T13:51:51;9.6;;;7.9;;
68872;SDS011;55907;50.806;12.882;2023-05-02T13:54:52;11.1;;;8.9;;
68872;SDS011;55907;50.806;12.882;2023-05-02T13:57:54;9.2;;;8.2;;
68872;SDS011;55907;50.806;12.882;2023-05-02T14:00:55;10.1;;;8.5;;
68872;SDS011;55907;50.806;12.882;2023-05-02T14:03:57;8.0;;;7.2;;
68872;SDS011;55907;50.806;12.882;2023-05-02T14:06:58;11.3;;;8.3;;
68872;SDS011;55907;50.806;12.882;2023-05-02T14:09:59;9.8;;;8.6;;
68872;SDS011;55907;50.806;12.882;2023-05-02T14:13:01;10.6;;;8.3;;
68872;SDS011;55907;50.806;12.882;2023-05-02T14:16:03;9.2;;;7.0;;
68872;SDS011;55907;50.806;12.882;2023-05-02T14:19:04;10.5;;;6.5;;
68872;SDS011;55907;50.806;12.882;2023-05-02T14:22:05;9.9;;;6.3;;
68872;SDS011;55907;50.806;12.882;2023-05-02T14:25:07;8.2;;;5.5;;
68872;SDS011;55907;50.806;12.882;2023-05-02T14:28:08;7.2;;;5.4;;
68872;SDS011;55907;50.806;12.882;2023-05-02T14:34:11;6.7;;;5.3;;
68872;SDS011;55907;50.806;12.882;2023-05-02T14:37:13;6.4;;;4.8;;
68872;SDS011;55907;50.806;12.882;2023-05-02T14:40:14;7.5;;;5.5;;
68872;SDS011;55907;50.806;12.882;2023-05-02T14:43:16;6.7;;;5.5;;
68872;SDS011;55907;50.806;12.882;2023-05-02T14:46:17;7.1;;;4.9;;
68872;SDS011;55907;50.806;12.882;2023-05-02T14:49:19;4.8;;;3.7;;
68872;SDS011;55907;50.806;12.882;2023-05-02T14:55:22;4.3;;;3.6;;
68872;SDS011;55907;50.806;12.882;2023-05-02T14:58:23;4.8;;;4.1;;
68872;SDS011;55907;50.806;12.882;2023-05-02T15:01:25;7.5;;;3.7;;
68872;SDS011;55907;50.806;12.882;2023-05-02T15:04:26;5.0;;;3.8;;
68872;SDS011;55907;50.806;12.882;2023-05-02T15:07:28;3.9;;;3.4;;
68872;SDS011;55907;50.806;12.882;2023-05-02T15:10:29;5.3;;;3.7;;
68872;SDS011;55907;50.806;12.882;2023-05-02T15:16:32;4.6;;;3.3;;
68872;SDS011;55907;50.806;12.882;2023-05-02T15:19:34;5.3;;;3.4;;
68872;SDS011;55907;50.806;12.882;2023-05-02T15:22:35;5.1;;;3.8;;
68872;SDS011;55907;50.806;12.882;2023-05-02T15:25:37;4.3;;;3.7;;
68872;SDS011;55907;50.806;12.882;2023-05-02T15:28:38;4.0;;;3.6;;
68872;SDS011;55907;50.806;12.882;2023-05-02T15:31:40;4.5;;;3.6;;
68872;SDS011;55907;50.806;12.882;2023-05-02T15:34:41;5.3;;;3.9;;
68872;SDS011;55907;50.806;12.882;2023-05-02T15:37:43;5.5;;;4.0;;
68872;SDS011;55907;50.806;12.882;2023-05-02T15:40:45;5.3;;;4.3;;
68872;SDS011;55907;50.806;12.882;2023-05-02T15:43:46;5.8;;;4.6;;
68872;SDS011;55907;50.806;12.882;2023-05-02T15:46:47;6.8;;;5.0;;
68872;SDS011;55907;50.806;12.882;2023-05-02T15:49:49;7.2;;;4.8;;
68872;SDS011;55907;50.806;12.882;2023-05-02T15:52:50;6.4;;;4.5;;
68872;SDS011;55907;50.806;12.882;2023-05-02T15:55:52;8.2;;;4.7;;
68872;SDS011;55907;50.806;12.882;2023-05-02T15:58:53;5.5;;;4.6;;
68872;SDS011;55907;50.806;12.882;2023-05-02T16:01:55;8.7;;;4.8;;
68872;SDS011;55907;50.806;12.882;2023-05-02T16:04:56;6.6;;;4.8;;
68872;SDS011;55907;50.806;12.882;2023-05-02T16:07:58;8.3;;;4.7;;
68872;SDS011;55907;50.806;12.882;2023-05-02T16:10:59;8.4;;;4.7;;
68872;SDS011;55907;50.806;12.882;2023-05-02T16:14:01;8.7;;;4.6;;
68872;SDS011;55907;50.806;12.882;2023-05-02T16:20:04;8.3;;;4.9;;
68872;SDS011;55907;50.806;12.882;2023-05-02T16:23:05;9.5;;;5.3;;
68872;SDS011;55907;50.806;12.882;2023-05-02T16:26:07;10.0;;;5.9;;
68872;SDS011;55907;50.806;12.882;2023-05-02T16:29:08;8.2;;;4.7;;
68872;SDS011;55907;50.806;12.882;2023-05-02T16:32:10;8.3;;;4.7;;
68872;SDS011;55907;50.806;12.882;2023-05-02T16:35:11;7.6;;;4.3;;
68872;SDS011;55907;50.806;12.882;2023-05-02T16:38:13;8.4;;;4.8;;
68872;SDS011;55907;50.806;12.882;2023-05-02T16:44:16;8.3;;;4.3;;
68872;SDS011;55907;50.806;12.882;2023-05-02T16:47:17;10.0;;;4.4;;
68872;SDS011;55907;50.806;12.882;2023-05-02T16:50:19;8.1;;;3.9;;
68872;SDS011;55907;50.806;12.882;2023-05-02T16:53:20;8.8;;;4.0;;
68872;SDS011;55907;50.806;12.882;2023-05-02T16:56:22;7.6;;;3.6;;
68872;SDS011;55907;50.806;12.882;2023-05-02T16:59:23;9.2;;;5.0;;
68872;SDS011;55907;50.806;12.882;2023-05-02T17:02:25;10.2;;;5.2;;
68872;SDS011;55907;50.806;12.882;2023-05-02T17:05:26;8.7;;;3.6;;
68872;SDS011;55907;50.806;12.882;2023-05-02T17:08:28;8.2;;;3.4;;
68872;SDS011;55907;50.806;12.882;2023-05-02T17:11:29;7.6;;;3.3;;
68872;SDS011;55907;50.806;12.882;2023-05-02T17:14:31;7.5;;;3.5;;
68872;SDS011;55907;50.806;12.882;2023-05-02T17:17:32;7.4;;;3.6;;
68872;SDS011;55907;50.806;12.882;2023-05-02T17:20:34;8.1;;;3.8;;
68872;SDS011;55907;50.806;12.882;2023-05-02T17:23:35;9.2;;;3.8;;
68872;SDS011;55907;50.806;12.882;2023-05-02T17:26:37;10.6;;;3.7;;
68872;SDS011;55907;50.806;12.882;2023-05-02T17:29:38;11.0;;;4.1;;
68872;SDS011;55907;50.806;12.882;2023-05-02T17:32:40;10.1;;;4.0;;
68872;SDS011;55907;50.806;12.882;2023-05-02T17:35:41;8.9;;;3.7;;
68872;SDS011;55907;50.806;12.882;2023-05-02T17:38:43;10.3;;;4.1;;
68872;SDS011;55907;50.806;12.882;2023-05-02T17:41:44;8.1;;;4.1;;
68872;SDS011;55907;50.806;12.882;2023-05-02T17:44:46;10.0;;;4.6;;
68872;SDS011;55907;50.806;12.882;2023-05-02T17:47:47;12.2;;;5.3;;
68872;SDS011;55907;50.806;12.882;2023-05-02T17:50:49;11.7;;;4.9;;
68872;SDS011;55907;50.806;12.882;2023-05-02T17:53:50;12.0;;;5.0;;
68872;SDS011;55907;50.806;12.882;2023-05-02T17:56:52;10.0;;;4.4;;
68872;SDS011;55907;50.806;12.882;2023-05-02T17:59:53;11.9;;;4.9;;
68872;SDS011;55907;50.806;12.882;2023-05-02T18:02:55;8.1;;;4.4;;
68872;SDS011;55907;50.806;12.882;2023-05-02T18:05:56;11.6;;;4.7;;
68872;SDS011;55907;50.806;12.882;2023-05-02T18:08:58;10.3;;;4.4;;
68872;SDS011;55907;50.806;12.882;2023-05-02T18:11:59;10.7;;;4.0;;
68872;SDS011;55907;50.806;12.882;2023-05-02T18:15:01;11.2;;;3.9;;
68872;SDS011;55907;50.806;12.882;2023-05-02T18:18:03;10.7;;;4.5;;
68872;SDS011;55907;50.806;12.882;2023-05-02T18:21:04;10.0;;;3.8;;
68872;SDS011;55907;50.806;12.882;2023-05-02T18:24:06;11.9;;;4.0;;
68872;SDS011;55907;50.806;12.882;2023-05-02T18:27:07;9.2;;;3.6;;
68872;SDS011;55907;50.806;12.882;2023-05-02T18:30:09;7.9;;;3.5;;
68872;SDS011;55907;50.806;12.882;2023-05-02T18:33:10;11.2;;;4.5;;
68872;SDS011;55907;50.806;12.882;2023-05-02T18:36:12;10.8;;;3.8;;
68872;SDS011;55907;50.806;12.882;2023-05-02T18:39:13;9.4;;;3.8;;
68872;SDS011;55907;50.806;12.882;2023-05-02T18:42:15;7.9;;;3.9;;
68872;SDS011;55907;50.806;12.882;2023-05-02T18:45:16;10.5;;;4.1;;
68872;SDS011;55907;50.806;12.882;2023-05-02T18:48:18;10.2;;;3.8;;
68872;SDS011;55907;50.806;12.882;2023-05-02T18:54:21;8.6;;;3.9;;
68872;SDS011;55907;50.806;12.882;2023-05-02T18:57:22;7.6;;;4.0;;
68872;SDS011;55907;50.806;12.882;2023-05-02T19:00:24;7.8;;;3.9;;
68872;SDS011;55907;50.806;12.882;2023-05-02T19:03:25;8.5;;;3.8;;
68872;SDS011;55907;50.806;12.882;2023-05-02T19:06:27;8.7;;;3.4;;
68872;SDS011;55907;50.806;12.882;2023-05-02T19:09:28;7.2;;;3.7;;
68872;SDS011;55907;50.806;12.882;2023-05-02T19:12:30;9.4;;;3.7;;
68872;SDS011;55907;50.806;12.882;2023-05-02T19:15:32;6.7;;;3.6;;
68872;SDS011;55907;50.806;12.882;2023-05-02T19:18:33;7.1;;;3.6;;
68872;SDS011;55907;50.806;12.882;2023-05-02T19:21:34;6.6;;;3.4;;
68872;SDS011;55907;50.806;12.882;2023-05-02T19:24:36;6.5;;;3.7;;
68872;SDS011;55907;50.806;12.882;2023-05-02T19:27:38;9.6;;;4.0;;